sensor_id;sensor_type;location;lat;lon;timestamp;P1;durP1;ratioP1;P2;durP2;ratioP2
17953;SDS011;9102;53.548;9.926;2023-05-17T00:00:19;27.30;;;4.95;;
17953;SDS011;9102;53.548;9.926;2023-05-17T00:02:46;26.58;;;5.53;;
17953;SDS011;9102;53.548;9.926;2023-05-17T00:05:12;26.40;;;4.50;;
17953;SDS011;9102;53.548;9.926;2023-05-17T00:07:41;22.17;;;4.25;;
17953;SDS011;9102;53.548;9.926;2023-05-17T00:10:08;19.83;;;4.82;;
17953;SDS011;9102;53.548;9.926;2023-05-17T00:12:35;20.85;;;4.43;;
17953;SDS011;9102;53.548;9.926;2023-05-17T00:15:02;20.80;;;4.57;;
17953;SDS011;9102;53.548;9.926;2023-05-17T00:17:29;23.65;;;4.70;;
17953;SDS011;9102;53.548;9.926;2023-05-17T00:19:56;21.08;;;4.28;;
17953;SDS011;9102;53.548;9.926;2023-05-17T00:22:22;21.83;;;4.35;;
17953;SDS011;9102;53.548;9.926;2023-05-17T00:24:51;22.23;;;4.15;;
17953;SDS011;9102;53.548;9.926;2023-05-17T00:27:17;20.42;;;3.80;;
17953;SDS011;9102;53.548;9.926;2023-05-17T00:29:44;30.23;;;4.55;;
17953;SDS011;9102;53.548;9.926;2023-05-17T00:32:11;20.40;;;3.50;;
17953;SDS011;9102;53.548;9.926;2023-05-17T00:34:38;24.38;;;3.70;;
17953;SDS011;9102;53.548;9.926;2023-05-17T00:37:05;22.27;;;4.18;;
17953;SDS011;9102;53.548;9.926;2023-05-17T00:39:32;25.45;;;3.80;;
17953;SDS011;9102;53.548;9.926;2023-05-17T00:42:00;24.67;;;4.50;;
17953;SDS011;9102;53.548;9.926;2023-05-17T00:44:27;15.98;;;4.03;;
17953;SDS011;9102;53.548;9.926;2023-05-17T00:46:53;21.95;;;3.75;;
17953;SDS011;9102;53.548;9.926;2023-05-17T00:49:21;20.33;;;3.40;;
17953;SDS011;9102;53.548;9.926;2023-05-17T00:51:48;22.15;;;4.18;;
17953;SDS011;9102;53.548;9.926;2023-05-17T00:54:15;18.73;;;3.60;;
17953;SDS011;9102;53.548;9.926;2023-05-17T00:56:41;25.02;;;3.63;;
17953;SDS011;9102;53.548;9.926;2023-05-17T00:59:10;20.38;;;3.90;;
17953;SDS011;9102;53.548;9.926;2023-05-17T01:01:39;27.33;;;4.55;;
17953;SDS011;9102;53.548;9.926;2023-05-17T01:04:07;18.48;;;3.38;;
17953;SDS011;9102;53.548;9.926;2023-05-17T01:06:35;20.67;;;3.60;;
17953;SDS011;9102;53.548;9.926;2023-05-17T01:09:01;20.80;;;3.53;;
17953;SDS011;9102;53.548;9.926;2023-05-17T01:11:31;21.00;;;3.60;;
17953;SDS011;9102;53.548;9.926;2023-05-17T01:14:08;23.30;;;4.15;;
17953;SDS011;9102;53.548;9.926;2023-05-17T01:16:48;29.00;;;3.83;;
17953;SDS011;9102;53.548;9.926;2023-05-17T01:19:24;19.50;;;3.67;;
17953;SDS011;9102;53.548;9.926;2023-05-17T01:22:14;20.30;;;5.45;;
17953;SDS011;9102;53.548;9.926;2023-05-17T01:24:48;25.85;;;4.32;;
17953;SDS011;9102;53.548;9.926;2023-05-17T01:27:20;19.98;;;3.15;;
17953;SDS011;9102;53.548;9.926;2023-05-17T01:29:49;22.33;;;3.92;;
17953;SDS011;9102;53.548;9.926;2023-05-17T01:32:17;25.70;;;4.25;;
17953;SDS011;9102;53.548;9.926;2023-05-17T01:34:45;16.05;;;3.58;;
17953;SDS011;9102;53.548;9.926;2023-05-17T01:37:11;26.15;;;3.88;;
17953;SDS011;9102;53.548;9.926;2023-05-17T01:39:38;23.63;;;4.22;;
17953;SDS011;9102;53.548;9.926;2023-05-17T01:42:08;18.70;;;3.55;;
17953;SDS011;9102;53.548;9.926;2023-05-17T01:44:44;18.95;;;3.75;;
17953;SDS011;9102;53.548;9.926;2023-05-17T01:47:17;20.38;;;3.47;;
17953;SDS011;9102;53.548;9.926;2023-05-17T01:49:51;29.50;;;4.32;;
17953;SDS011;9102;53.548;9.926;2023-05-17T01:52:23;21.27;;;3.72;;
17953;SDS011;9102;53.548;9.926;2023-05-17T01:55:08;18.23;;;3.78;;
17953;SDS011;9102;53.548;9.926;2023-05-17T01:57:39;28.50;;;4.13;;
17953;SDS011;9102;53.548;9.926;2023-05-17T02:00:10;29.02;;;3.70;;
17953;SDS011;9102;53.548;9.926;2023-05-17T02:02:38;23.35;;;3.63;;
17953;SDS011;9102;53.548;9.926;2023-05-17T02:05:05;20.90;;;3.33;;
17953;SDS011;9102;53.548;9.926;2023-05-17T02:07:33;16.08;;;3.10;;
17953;SDS011;9102;53.548;9.926;2023-05-17T02:09:59;18.33;;;3.20;;
17953;SDS011;9102;53.548;9.926;2023-05-17T02:12:26;18.25;;;3.22;;
17953;SDS011;9102;53.548;9.926;2023-05-17T02:14:53;22.27;;;3.13;;
17953;SDS011;9102;53.548;9.926;2023-05-17T02:17:21;17.25;;;2.95;;
17953;SDS011;9102;53.548;9.926;2023-05-17T02:19:48;11.27;;;2.03;;
17953;SDS011;9102;53.548;9.926;2023-05-17T02:22:15;19.02;;;2.47;;
17953;SDS011;9102;53.548;9.926;2023-05-17T02:24:42;21.65;;;2.50;;
17953;SDS011;9102;53.548;9.926;2023-05-17T02:27:08;15.75;;;2.67;;
17953;SDS011;9102;53.548;9.926;2023-05-17T02:29:35;12.38;;;2.35;;
17953;SDS011;9102;53.548;9.926;2023-05-17T02:32:02;18.80;;;2.03;;
17953;SDS011;9102;53.548;9.926;2023-05-17T02:34:31;12.27;;;2.72;;
17953;SDS011;9102;53.548;9.926;2023-05-17T02:36:58;20.92;;;2.92;;
17953;SDS011;9102;53.548;9.926;2023-05-17T02:39:25;25.58;;;2.55;;
17953;SDS011;9102;53.548;9.926;2023-05-17T02:41:51;18.45;;;2.90;;
17953;SDS011;9102;53.548;9.926;2023-05-17T02:44:18;18.05;;;2.22;;
17953;SDS011;9102;53.548;9.926;2023-05-17T02:46:45;15.10;;;2.22;;
17953;SDS011;9102;53.548;9.926;2023-05-17T02:49:12;13.63;;;2.30;;
17953;SDS011;9102;53.548;9.926;2023-05-17T02:51:40;19.33;;;2.20;;
17953;SDS011;9102;53.548;9.926;2023-05-17T02:54:07;16.02;;;2.10;;
17953;SDS011;9102;53.548;9.926;2023-05-17T02:56:34;17.77;;;2.65;;
17953;SDS011;9102;53.548;9.926;2023-05-17T02:59:01;17.90;;;2.38;;
17953;SDS011;9102;53.548;9.926;2023-05-17T03:01:28;13.73;;;1.98;;
17953;SDS011;9102;53.548;9.926;2023-05-17T03:03:55;12.52;;;2.35;;
17953;SDS011;9102;53.548;9.926;2023-05-17T03:06:22;11.88;;;2.78;;
17953;SDS011;9102;53.548;9.926;2023-05-17T03:08:50;20.25;;;2.40;;
17953;SDS011;9102;53.548;9.926;2023-05-17T03:11:17;16.77;;;2.25;;
17953;SDS011;9102;53.548;9.926;2023-05-17T03:13:44;17.02;;;2.50;;
17953;SDS011;9102;53.548;9.926;2023-05-17T03:16:15;16.77;;;2.97;;
17953;SDS011;9102;53.548;9.926;2023-05-17T03:18:42;11.15;;;2.22;;
17953;SDS011;9102;53.548;9.926;2023-05-17T03:21:09;11.57;;;1.92;;
17953;SDS011;9102;53.548;9.926;2023-05-17T03:23:36;13.02;;;2.33;;
17953;SDS011;9102;53.548;9.926;2023-05-17T03:26:04;14.63;;;1.80;;
17953;SDS011;9102;53.548;9.926;2023-05-17T03:28:31;18.92;;;2.28;;
17953;SDS011;9102;53.548;9.926;2023-05-17T03:30:58;16.42;;;2.60;;
17953;SDS011;9102;53.548;9.926;2023-05-17T03:33:25;14.38;;;2.63;;
17953;SDS011;9102;53.548;9.926;2023-05-17T03:35:51;11.68;;;2.58;;
17953;SDS011;9102;53.548;9.926;2023-05-17T03:38:18;15.65;;;2.88;;
17953;SDS011;9102;53.548;9.926;2023-05-17T03:40:45;16.15;;;2.10;;
17953;SDS011;9102;53.548;9.926;2023-05-17T03:43:13;16.80;;;2.42;;
17953;SDS011;9102;53.548;9.926;2023-05-17T03:45:40;17.23;;;2.13;;
17953;SDS011;9102;53.548;9.926;2023-05-17T03:48:07;15.90;;;2.05;;
17953;SDS011;9102;53.548;9.926;2023-05-17T03:50:34;16.05;;;2.28;;
17953;SDS011;9102;53.548;9.926;2023-05-17T03:53:04;17.38;;;2.25;;
17953;SDS011;9102;53.548;9.926;2023-05-17T03:55:30;14.32;;;2.40;;
17953;SDS011;9102;53.548;9.926;2023-05-17T03:57:57;9.25;;;2.55;;
17953;SDS011;9102;53.548;9.926;2023-05-17T04:00:25;14.77;;;2.35;;
17953;SDS011;9102;53.548;9.926;2023-05-17T04:02:52;18.02;;;2.53;;
17953;SDS011;9102;53.548;9.926;2023-05-17T04:05:19;18.35;;;2.75;;
17953;SDS011;9102;53.548;9.926;2023-05-17T04:07:46;15.93;;;2.33;;
17953;SDS011;9102;53.548;9.926;2023-05-17T04:10:13;16.25;;;2.83;;
17953;SDS011;9102;53.548;9.926;2023-05-17T04:12:40;13.82;;;2.70;;
17953;SDS011;9102;53.548;9.926;2023-05-17T04:15:07;19.80;;;2.50;;
17953;SDS011;9102;53.548;9.926;2023-05-17T04:17:36;12.90;;;2.40;;
17953;SDS011;9102;53.548;9.926;2023-05-17T04:20:03;20.15;;;2.67;;
17953;SDS011;9102;53.548;9.926;2023-05-17T04:22:30;20.67;;;2.97;;
17953;SDS011;9102;53.548;9.926;2023-05-17T04:24:57;21.05;;;2.67;;
17953;SDS011;9102;53.548;9.926;2023-05-17T04:27:24;16.08;;;2.70;;
17953;SDS011;9102;53.548;9.926;2023-05-17T04:29:51;17.73;;;2.72;;
17953;SDS011;9102;53.548;9.926;2023-05-17T04:32:17;13.07;;;2.25;;
17953;SDS011;9102;53.548;9.926;2023-05-17T04:34:46;21.20;;;2.85;;
17953;SDS011;9102;53.548;9.926;2023-05-17T04:37:13;25.30;;;3.03;;
17953;SDS011;9102;53.548;9.926;2023-05-17T04:39:41;21.48;;;3.33;;
17953;SDS011;9102;53.548;9.926;2023-05-17T04:42:07;16.13;;;2.67;;
17953;SDS011;9102;53.548;9.926;2023-05-17T04:44:34;18.20;;;3.08;;
17953;SDS011;9102;53.548;9.926;2023-05-17T04:47:01;16.67;;;2.95;;
17953;SDS011;9102;53.548;9.926;2023-05-17T04:49:28;16.77;;;2.50;;
17953;SDS011;9102;53.548;9.926;2023-05-17T04:51:57;19.35;;;2.30;;
17953;SDS011;9102;53.548;9.926;2023-05-17T04:54:23;14.07;;;2.75;;
17953;SDS011;9102;53.548;9.926;2023-05-17T04:56:51;12.93;;;2.42;;
17953;SDS011;9102;53.548;9.926;2023-05-17T04:59:18;18.35;;;2.55;;
17953;SDS011;9102;53.548;9.926;2023-05-17T05:01:44;17.27;;;2.35;;
17953;SDS011;9102;53.548;9.926;2023-05-17T05:04:11;17.33;;;2.72;;
17953;SDS011;9102;53.548;9.926;2023-05-17T05:06:38;20.65;;;3.20;;
17953;SDS011;9102;53.548;9.926;2023-05-17T05:09:06;21.15;;;3.08;;
17953;SDS011;9102;53.548;9.926;2023-05-17T05:11:33;16.85;;;2.83;;
17953;SDS011;9102;53.548;9.926;2023-05-17T05:14:01;15.23;;;2.83;;
17953;SDS011;9102;53.548;9.926;2023-05-17T05:16:27;18.10;;;2.95;;
17953;SDS011;9102;53.548;9.926;2023-05-17T05:18:54;18.70;;;2.55;;
17953;SDS011;9102;53.548;9.926;2023-05-17T05:21:21;21.27;;;3.08;;
17953;SDS011;9102;53.548;9.926;2023-05-17T05:23:48;26.95;;;3.55;;
17953;SDS011;9102;53.548;9.926;2023-05-17T05:26:16;20.85;;;3.00;;
17953;SDS011;9102;53.548;9.926;2023-05-17T05:28:43;14.85;;;2.60;;
17953;SDS011;9102;53.548;9.926;2023-05-17T05:31:09;20.15;;;2.83;;
17953;SDS011;9102;53.548;9.926;2023-05-17T05:33:36;18.98;;;3.05;;
17953;SDS011;9102;53.548;9.926;2023-05-17T05:36:03;19.85;;;2.80;;
17953;SDS011;9102;53.548;9.926;2023-05-17T05:38:30;16.65;;;2.78;;
17953;SDS011;9102;53.548;9.926;2023-05-17T05:40:57;31.42;;;11.18;;
17953;SDS011;9102;53.548;9.926;2023-05-17T05:43:25;10.27;;;2.42;;
17953;SDS011;9102;53.548;9.926;2023-05-17T05:45:52;15.93;;;2.38;;
17953;SDS011;9102;53.548;9.926;2023-05-17T05:48:19;14.27;;;2.72;;
17953;SDS011;9102;53.548;9.926;2023-05-17T05:50:46;13.95;;;2.28;;
17953;SDS011;9102;53.548;9.926;2023-05-17T05:53:13;18.08;;;2.63;;
17953;SDS011;9102;53.548;9.926;2023-05-17T05:55:40;11.25;;;2.40;;
17953;SDS011;9102;53.548;9.926;2023-05-17T05:58:07;12.63;;;2.63;;
17953;SDS011;9102;53.548;9.926;2023-05-17T06:00:35;10.02;;;1.88;;
17953;SDS011;9102;53.548;9.926;2023-05-17T06:03:02;15.15;;;2.15;;
17953;SDS011;9102;53.548;9.926;2023-05-17T06:05:30;9.20;;;1.88;;
17953;SDS011;9102;53.548;9.926;2023-05-17T06:07:56;15.68;;;2.47;;
17953;SDS011;9102;53.548;9.926;2023-05-17T06:10:23;13.50;;;2.40;;
17953;SDS011;9102;53.548;9.926;2023-05-17T06:12:50;14.23;;;2.47;;
17953;SDS011;9102;53.548;9.926;2023-05-17T06:15:17;12.43;;;2.75;;
17953;SDS011;9102;53.548;9.926;2023-05-17T06:17:45;15.27;;;2.30;;
17953;SDS011;9102;53.548;9.926;2023-05-17T06:20:12;14.63;;;2.45;;
17953;SDS011;9102;53.548;9.926;2023-05-17T06:22:40;14.20;;;2.03;;
17953;SDS011;9102;53.548;9.926;2023-05-17T06:25:07;16.20;;;2.70;;
17953;SDS011;9102;53.548;9.926;2023-05-17T06:27:35;10.18;;;1.98;;
17953;SDS011;9102;53.548;9.926;2023-05-17T06:30:02;15.48;;;2.17;;
17953;SDS011;9102;53.548;9.926;2023-05-17T06:32:30;15.52;;;1.85;;
17953;SDS011;9102;53.548;9.926;2023-05-17T06:34:58;10.88;;;2.20;;
17953;SDS011;9102;53.548;9.926;2023-05-17T06:37:25;13.25;;;2.08;;
17953;SDS011;9102;53.548;9.926;2023-05-17T06:39:52;17.55;;;2.17;;
17953;SDS011;9102;53.548;9.926;2023-05-17T06:42:26;9.65;;;2.35;;
17953;SDS011;9102;53.548;9.926;2023-05-17T06:44:53;12.73;;;2.00;;
17953;SDS011;9102;53.548;9.926;2023-05-17T06:47:20;11.60;;;2.33;;
17953;SDS011;9102;53.548;9.926;2023-05-17T06:49:46;13.30;;;2.17;;
17953;SDS011;9102;53.548;9.926;2023-05-17T06:52:14;11.75;;;1.95;;
17953;SDS011;9102;53.548;9.926;2023-05-17T06:54:42;12.82;;;1.98;;
17953;SDS011;9102;53.548;9.926;2023-05-17T06:57:09;10.88;;;2.33;;
17953;SDS011;9102;53.548;9.926;2023-05-17T06:59:36;10.95;;;2.38;;
17953;SDS011;9102;53.548;9.926;2023-05-17T07:02:03;15.70;;;2.30;;
17953;SDS011;9102;53.548;9.926;2023-05-17T07:04:30;20.40;;;2.03;;
17953;SDS011;9102;53.548;9.926;2023-05-17T07:06:57;11.57;;;1.80;;
17953;SDS011;9102;53.548;9.926;2023-05-17T07:09:25;13.27;;;2.15;;
17953;SDS011;9102;53.548;9.926;2023-05-17T07:11:52;10.70;;;1.92;;
17953;SDS011;9102;53.548;9.926;2023-05-17T07:14:19;15.07;;;2.50;;
17953;SDS011;9102;53.548;9.926;2023-05-17T07:16:45;13.40;;;2.20;;
17953;SDS011;9102;53.548;9.926;2023-05-17T07:19:13;11.00;;;2.17;;
17953;SDS011;9102;53.548;9.926;2023-05-17T07:21:40;13.65;;;2.25;;
17953;SDS011;9102;53.548;9.926;2023-05-17T07:24:06;9.05;;;1.55;;
17953;SDS011;9102;53.548;9.926;2023-05-17T07:26:35;19.17;;;2.65;;
17953;SDS011;9102;53.548;9.926;2023-05-17T07:29:02;10.60;;;2.00;;
17953;SDS011;9102;53.548;9.926;2023-05-17T07:31:29;14.15;;;2.28;;
17953;SDS011;9102;53.548;9.926;2023-05-17T07:33:56;16.00;;;2.10;;
17953;SDS011;9102;53.548;9.926;2023-05-17T07:36:23;13.00;;;2.30;;
17953;SDS011;9102;53.548;9.926;2023-05-17T07:38:51;12.55;;;2.25;;
17953;SDS011;9102;53.548;9.926;2023-05-17T07:41:18;10.52;;;2.00;;
17953;SDS011;9102;53.548;9.926;2023-05-17T07:43:48;10.48;;;1.98;;
17953;SDS011;9102;53.548;9.926;2023-05-17T07:46:16;9.23;;;1.65;;
17953;SDS011;9102;53.548;9.926;2023-05-17T07:48:43;14.43;;;2.80;;
17953;SDS011;9102;53.548;9.926;2023-05-17T07:51:09;9.93;;;2.58;;
17953;SDS011;9102;53.548;9.926;2023-05-17T07:53:36;9.98;;;1.95;;
17953;SDS011;9102;53.548;9.926;2023-05-17T07:56:03;8.38;;;1.58;;
17953;SDS011;9102;53.548;9.926;2023-05-17T07:58:30;8.43;;;2.15;;
17953;SDS011;9102;53.548;9.926;2023-05-17T08:00:59;14.63;;;2.55;;
17953;SDS011;9102;53.548;9.926;2023-05-17T08:03:26;10.70;;;2.35;;
17953;SDS011;9102;53.548;9.926;2023-05-17T08:05:53;11.55;;;2.28;;
17953;SDS011;9102;53.548;9.926;2023-05-17T08:08:20;11.40;;;1.77;;
17953;SDS011;9102;53.548;9.926;2023-05-17T08:10:47;12.57;;;2.45;;
17953;SDS011;9102;53.548;9.926;2023-05-17T08:13:14;9.30;;;1.73;;
17953;SDS011;9102;53.548;9.926;2023-05-17T08:15:41;14.77;;;1.98;;
17953;SDS011;9102;53.548;9.926;2023-05-17T08:18:09;10.38;;;2.33;;
17953;SDS011;9102;53.548;9.926;2023-05-17T08:20:36;6.35;;;1.40;;
17953;SDS011;9102;53.548;9.926;2023-05-17T08:23:02;12.30;;;1.95;;
17953;SDS011;9102;53.548;9.926;2023-05-17T08:25:29;15.30;;;2.22;;
17953;SDS011;9102;53.548;9.926;2023-05-17T08:27:56;15.27;;;2.40;;
17953;SDS011;9102;53.548;9.926;2023-05-17T08:30:23;9.80;;;2.20;;
17953;SDS011;9102;53.548;9.926;2023-05-17T08:32:50;19.95;;;2.25;;
17953;SDS011;9102;53.548;9.926;2023-05-17T08:35:18;9.85;;;1.90;;
17953;SDS011;9102;53.548;9.926;2023-05-17T08:37:45;13.27;;;2.42;;
17953;SDS011;9102;53.548;9.926;2023-05-17T08:40:12;12.32;;;2.42;;
17953;SDS011;9102;53.548;9.926;2023-05-17T08:42:44;13.88;;;2.53;;
17953;SDS011;9102;53.548;9.926;2023-05-17T08:45:11;14.15;;;2.33;;
17953;SDS011;9102;53.548;9.926;2023-05-17T08:47:40;8.63;;;2.28;;
17953;SDS011;9102;53.548;9.926;2023-05-17T08:50:08;15.05;;;2.72;;
17953;SDS011;9102;53.548;9.926;2023-05-17T08:52:38;16.23;;;3.05;;
17953;SDS011;9102;53.548;9.926;2023-05-17T08:55:06;13.90;;;2.35;;
17953;SDS011;9102;53.548;9.926;2023-05-17T08:57:34;17.40;;;2.40;;
17953;SDS011;9102;53.548;9.926;2023-05-17T09:00:02;13.95;;;2.90;;
17953;SDS011;9102;53.548;9.926;2023-05-17T09:02:36;8.68;;;2.10;;
17953;SDS011;9102;53.548;9.926;2023-05-17T09:05:04;12.18;;;1.95;;
17953;SDS011;9102;53.548;9.926;2023-05-17T09:07:32;22.58;;;2.80;;
17953;SDS011;9102;53.548;9.926;2023-05-17T09:10:00;13.80;;;2.20;;
17953;SDS011;9102;53.548;9.926;2023-05-17T09:12:29;12.18;;;2.38;;
17953;SDS011;9102;53.548;9.926;2023-05-17T09:15:10;11.38;;;1.98;;
17953;SDS011;9102;53.548;9.926;2023-05-17T09:17:41;14.52;;;2.95;;
17953;SDS011;9102;53.548;9.926;2023-05-17T09:20:09;11.25;;;3.00;;
17953;SDS011;9102;53.548;9.926;2023-05-17T09:22:36;9.20;;;1.95;;
17953;SDS011;9102;53.548;9.926;2023-05-17T09:25:04;10.02;;;2.47;;
17953;SDS011;9102;53.548;9.926;2023-05-17T09:27:32;18.08;;;2.75;;
17953;SDS011;9102;53.548;9.926;2023-05-17T09:29:59;14.23;;;2.45;;
17953;SDS011;9102;53.548;9.926;2023-05-17T09:32:26;10.55;;;1.90;;
17953;SDS011;9102;53.548;9.926;2023-05-17T09:34:53;12.27;;;2.13;;
17953;SDS011;9102;53.548;9.926;2023-05-17T09:37:21;9.95;;;2.15;;
17953;SDS011;9102;53.548;9.926;2023-05-17T09:39:50;15.50;;;2.22;;
17953;SDS011;9102;53.548;9.926;2023-05-17T09:42:18;13.85;;;3.20;;
17953;SDS011;9102;53.548;9.926;2023-05-17T09:44:51;15.30;;;2.53;;
17953;SDS011;9102;53.548;9.926;2023-05-17T09:47:22;15.50;;;2.30;;
17953;SDS011;9102;53.548;9.926;2023-05-17T09:49:49;11.13;;;2.63;;
17953;SDS011;9102;53.548;9.926;2023-05-17T09:52:17;10.38;;;2.38;;
17953;SDS011;9102;53.548;9.926;2023-05-17T09:54:51;10.07;;;1.80;;
17953;SDS011;9102;53.548;9.926;2023-05-17T09:57:20;12.23;;;2.08;;
17953;SDS011;9102;53.548;9.926;2023-05-17T09:59:48;16.50;;;2.25;;
17953;SDS011;9102;53.548;9.926;2023-05-17T10:02:22;9.98;;;1.95;;
17953;SDS011;9102;53.548;9.926;2023-05-17T10:04:54;14.00;;;2.33;;
17953;SDS011;9102;53.548;9.926;2023-05-17T10:07:23;15.43;;;2.00;;
17953;SDS011;9102;53.548;9.926;2023-05-17T10:09:51;12.05;;;2.47;;
17953;SDS011;9102;53.548;9.926;2023-05-17T10:12:21;14.65;;;2.10;;
17953;SDS011;9102;53.548;9.926;2023-05-17T10:14:49;18.73;;;3.03;;
17953;SDS011;9102;53.548;9.926;2023-05-17T10:17:19;10.32;;;2.22;;
17953;SDS011;9102;53.548;9.926;2023-05-17T10:19:48;9.70;;;2.00;;
17953;SDS011;9102;53.548;9.926;2023-05-17T10:22:15;14.27;;;2.17;;
17953;SDS011;9102;53.548;9.926;2023-05-17T10:24:43;9.85;;;1.70;;
17953;SDS011;9102;53.548;9.926;2023-05-17T10:27:11;12.00;;;2.00;;
17953;SDS011;9102;53.548;9.926;2023-05-17T10:29:40;11.00;;;2.13;;
17953;SDS011;9102;53.548;9.926;2023-05-17T10:32:07;12.43;;;2.25;;
17953;SDS011;9102;53.548;9.926;2023-05-17T10:34:35;10.60;;;1.92;;
17953;SDS011;9102;53.548;9.926;2023-05-17T10:37:02;9.68;;;2.03;;
17953;SDS011;9102;53.548;9.926;2023-05-17T10:39:30;12.43;;;2.30;;
17953;SDS011;9102;53.548;9.926;2023-05-17T10:41:59;13.40;;;1.90;;
17953;SDS011;9102;53.548;9.926;2023-05-17T10:44:29;10.77;;;2.13;;
17953;SDS011;9102;53.548;9.926;2023-05-17T10:46:59;11.45;;;1.73;;
17953;SDS011;9102;53.548;9.926;2023-05-17T10:49:28;14.00;;;2.10;;
17953;SDS011;9102;53.548;9.926;2023-05-17T10:51:56;7.53;;;1.60;;
17953;SDS011;9102;53.548;9.926;2023-05-17T10:54:32;11.90;;;1.70;;
17953;SDS011;9102;53.548;9.926;2023-05-17T10:57:01;7.30;;;1.50;;
17953;SDS011;9102;53.548;9.926;2023-05-17T10:59:30;9.50;;;1.90;;
17953;SDS011;9102;53.548;9.926;2023-05-17T11:01:58;9.55;;;1.85;;
17953;SDS011;9102;53.548;9.926;2023-05-17T11:04:31;13.63;;;2.42;;
17953;SDS011;9102;53.548;9.926;2023-05-17T11:07:19;7.65;;;1.60;;
17953;SDS011;9102;53.548;9.926;2023-05-17T11:09:54;11.05;;;1.90;;
17953;SDS011;9102;53.548;9.926;2023-05-17T11:12:30;9.10;;;1.80;;
17953;SDS011;9102;53.548;9.926;2023-05-17T11:15:00;9.65;;;1.50;;
17953;SDS011;9102;53.548;9.926;2023-05-17T11:17:34;4.70;;;1.30;;
17953;SDS011;9102;53.548;9.926;2023-05-17T11:20:03;8.35;;;1.63;;
17953;SDS011;9102;53.548;9.926;2023-05-17T11:22:34;9.32;;;1.50;;
17953;SDS011;9102;53.548;9.926;2023-05-17T11:25:07;5.70;;;1.60;;
17953;SDS011;9102;53.548;9.926;2023-05-17T11:27:37;7.22;;;1.30;;
17953;SDS011;9102;53.548;9.926;2023-05-17T11:30:09;9.45;;;1.50;;
17953;SDS011;9102;53.548;9.926;2023-05-17T11:32:51;7.82;;;1.40;;
17953;SDS011;9102;53.548;9.926;2023-05-17T11:35:22;7.78;;;1.45;;
17953;SDS011;9102;53.548;9.926;2023-05-17T11:37:51;8.63;;;1.63;;
17953;SDS011;9102;53.548;9.926;2023-05-17T11:40:23;8.68;;;1.52;;
17953;SDS011;9102;53.548;9.926;2023-05-17T11:45:44;7.60;;;1.67;;
17953;SDS011;9102;53.548;9.926;2023-05-17T11:48:16;8.52;;;2.15;;
17953;SDS011;9102;53.548;9.926;2023-05-17T11:50:46;11.10;;;2.20;;
17953;SDS011;9102;53.548;9.926;2023-05-17T11:53:14;8.93;;;1.83;;
17953;SDS011;9102;53.548;9.926;2023-05-17T11:55:44;11.77;;;2.55;;
17953;SDS011;9102;53.548;9.926;2023-05-17T11:58:13;9.55;;;2.00;;
17953;SDS011;9102;53.548;9.926;2023-05-17T12:00:41;9.27;;;1.25;;
17953;SDS011;9102;53.548;9.926;2023-05-17T12:03:17;9.98;;;1.50;;
17953;SDS011;9102;53.548;9.926;2023-05-17T12:05:45;8.43;;;1.70;;
17953;SDS011;9102;53.548;9.926;2023-05-17T12:08:14;9.73;;;1.50;;
17953;SDS011;9102;53.548;9.926;2023-05-17T12:10:43;10.25;;;1.52;;
17953;SDS011;9102;53.548;9.926;2023-05-17T12:13:11;9.23;;;1.52;;
17953;SDS011;9102;53.548;9.926;2023-05-17T12:15:38;9.95;;;3.05;;
17953;SDS011;9102;53.548;9.926;2023-05-17T12:18:05;8.77;;;1.92;;
17953;SDS011;9102;53.548;9.926;2023-05-17T12:20:34;8.35;;;1.77;;
17953;SDS011;9102;53.548;9.926;2023-05-17T12:23:03;5.57;;;1.20;;
17953;SDS011;9102;53.548;9.926;2023-05-17T12:25:29;6.93;;;1.40;;
17953;SDS011;9102;53.548;9.926;2023-05-17T12:28:11;8.35;;;1.48;;
17953;SDS011;9102;53.548;9.926;2023-05-17T12:30:39;7.75;;;1.80;;
17953;SDS011;9102;53.548;9.926;2023-05-17T12:33:06;12.93;;;2.00;;
17953;SDS011;9102;53.548;9.926;2023-05-17T12:35:34;4.45;;;1.40;;
17953;SDS011;9102;53.548;9.926;2023-05-17T12:38:01;9.18;;;1.45;;
17953;SDS011;9102;53.548;9.926;2023-05-17T12:40:28;7.22;;;2.15;;
17953;SDS011;9102;53.548;9.926;2023-05-17T12:43:00;12.27;;;1.88;;
17953;SDS011;9102;53.548;9.926;2023-05-17T12:45:27;9.77;;;2.08;;
17953;SDS011;9102;53.548;9.926;2023-05-17T12:47:54;9.32;;;1.60;;
17953;SDS011;9102;53.548;9.926;2023-05-17T12:50:24;5.50;;;1.25;;
17953;SDS011;9102;53.548;9.926;2023-05-17T12:52:52;10.98;;;1.85;;
17953;SDS011;9102;53.548;9.926;2023-05-17T12:55:19;9.65;;;1.80;;
17953;SDS011;9102;53.548;9.926;2023-05-17T12:57:49;6.50;;;1.67;;
17953;SDS011;9102;53.548;9.926;2023-05-17T13:00:17;6.07;;;1.25;;
17953;SDS011;9102;53.548;9.926;2023-05-17T13:02:44;6.93;;;1.65;;
17953;SDS011;9102;53.548;9.926;2023-05-17T13:05:15;6.43;;;1.20;;
17953;SDS011;9102;53.548;9.926;2023-05-17T13:07:45;7.47;;;1.63;;
17953;SDS011;9102;53.548;9.926;2023-05-17T13:10:20;10.63;;;1.73;;
17953;SDS011;9102;53.548;9.926;2023-05-17T13:12:56;9.45;;;1.63;;
17953;SDS011;9102;53.548;9.926;2023-05-17T13:15:27;8.45;;;1.88;;
17953;SDS011;9102;53.548;9.926;2023-05-17T13:17:54;9.48;;;1.42;;
17953;SDS011;9102;53.548;9.926;2023-05-17T13:20:21;11.32;;;2.00;;
17953;SDS011;9102;53.548;9.926;2023-05-17T13:22:48;11.90;;;1.83;;
17953;SDS011;9102;53.548;9.926;2023-05-17T13:25:15;8.25;;;2.33;;
17953;SDS011;9102;53.548;9.926;2023-05-17T13:27:43;11.20;;;2.17;;
17953;SDS011;9102;53.548;9.926;2023-05-17T13:30:13;5.45;;;1.13;;
17953;SDS011;9102;53.548;9.926;2023-05-17T13:32:41;5.25;;;0.98;;
17953;SDS011;9102;53.548;9.926;2023-05-17T13:35:09;6.90;;;1.30;;
17953;SDS011;9102;53.548;9.926;2023-05-17T13:37:35;8.25;;;1.40;;
17953;SDS011;9102;53.548;9.926;2023-05-17T13:40:03;9.65;;;1.70;;
17953;SDS011;9102;53.548;9.926;2023-05-17T13:42:31;9.63;;;1.95;;
17953;SDS011;9102;53.548;9.926;2023-05-17T13:44:59;8.65;;;1.75;;
17953;SDS011;9102;53.548;9.926;2023-05-17T13:47:26;9.60;;;1.92;;
17953;SDS011;9102;53.548;9.926;2023-05-17T13:49:55;7.40;;;1.60;;
17953;SDS011;9102;53.548;9.926;2023-05-17T13:52:22;8.35;;;1.80;;
17953;SDS011;9102;53.548;9.926;2023-05-17T13:54:49;11.40;;;1.58;;
17953;SDS011;9102;53.548;9.926;2023-05-17T13:57:16;10.50;;;2.08;;
17953;SDS011;9102;53.548;9.926;2023-05-17T13:59:43;9.43;;;2.13;;
17953;SDS011;9102;53.548;9.926;2023-05-17T14:02:11;11.85;;;1.80;;
17953;SDS011;9102;53.548;9.926;2023-05-17T14:04:38;7.28;;;1.77;;
17953;SDS011;9102;53.548;9.926;2023-05-17T14:07:05;14.48;;;2.05;;
17953;SDS011;9102;53.548;9.926;2023-05-17T14:09:32;11.68;;;2.08;;
17953;SDS011;9102;53.548;9.926;2023-05-17T14:12:00;5.38;;;1.67;;
17953;SDS011;9102;53.548;9.926;2023-05-17T14:14:28;13.65;;;1.92;;
17953;SDS011;9102;53.548;9.926;2023-05-17T14:16:55;8.02;;;1.60;;
17953;SDS011;9102;53.548;9.926;2023-05-17T14:19:23;10.77;;;2.13;;
17953;SDS011;9102;53.548;9.926;2023-05-17T14:21:50;7.35;;;1.40;;
17953;SDS011;9102;53.548;9.926;2023-05-17T14:24:17;14.30;;;2.35;;
17953;SDS011;9102;53.548;9.926;2023-05-17T14:26:44;6.35;;;1.88;;
17953;SDS011;9102;53.548;9.926;2023-05-17T14:29:10;8.40;;;2.03;;
17953;SDS011;9102;53.548;9.926;2023-05-17T14:31:37;11.73;;;1.90;;
17953;SDS011;9102;53.548;9.926;2023-05-17T14:34:04;10.85;;;1.92;;
17953;SDS011;9102;53.548;9.926;2023-05-17T14:36:32;10.90;;;2.30;;
17953;SDS011;9102;53.548;9.926;2023-05-17T14:39:00;15.68;;;2.90;;
17953;SDS011;9102;53.548;9.926;2023-05-17T14:41:27;8.10;;;1.70;;
17953;SDS011;9102;53.548;9.926;2023-05-17T14:43:54;10.95;;;1.80;;
17953;SDS011;9102;53.548;9.926;2023-05-17T14:46:21;9.70;;;1.85;;
17953;SDS011;9102;53.548;9.926;2023-05-17T14:48:48;10.30;;;1.45;;
17953;SDS011;9102;53.548;9.926;2023-05-17T14:51:16;5.55;;;1.90;;
17953;SDS011;9102;53.548;9.926;2023-05-17T14:53:45;10.65;;;1.63;;
17953;SDS011;9102;53.548;9.926;2023-05-17T14:56:12;11.48;;;1.55;;
17953;SDS011;9102;53.548;9.926;2023-05-17T14:58:39;10.88;;;1.70;;